Aeroporto :
LOGIN :

Iscrizione | Disclaimer

   EN    FR    IT 

 










Sommario :    VFR   VFR Marginale   IFR   IFR Intensivo   IFR Molto Intensivo
Visibilità : 
Base nubi : 
>= 8 km
>= 3000ft
5 / 8 km
1000 / 3000 ft
1500m / 5 km
500 / 1000 ft
800 / 1500m
200 / 500 ft
< 800m
< 200 ft
Simboli :   Temporali  Nebbia  Neve Forte  Precipitazioni Forti  Vento > 20 kt
SIGMETs :   Varie  Temporali  Ghiacco  Turbolenza  Onda orograficha  Ceneri Vulcaniche






- Altitudine del aeroporto : 56 ft
- Codice IATA : ODE


EKOD - Odense

ULTIMO METAR :
  • 130750Z 12014KT 9999 FEW016 BKN021 BKN025 03/02 Q0984

METARs OBSOLETI :
  • 130720Z 13015KT 9999 FEW018 BKN024 03/02 Q0985
  • 130650Z 13018KT 9999 FEW019 BKN022 03/02 Q0985
  • 130620Z 12015KT 9999 FEW018 BKN026 BKN030 03/02 Q0985
  • 130550Z 13015KT 9999 FEW019 BKN025 BKN030 03/02 Q0985

TAF TAF EKOD
Valido dal 13 a 07 ore il 13 a 15 ore UTC


130652Z 1307/1315 13015KT 9999 BKN020
TEMPO 1307/1315 13018G28KT BKN012



MetMap, La meteo Aeronautica in un colpo d'occhio ! - Copyright ORBIFLY Dicembre 2007 - Disclaimer

ORBIFLY MET'MAP TEAM :

Programmazione e sviluppo : Alexandra Zaïnal
Concezione : Baudouin d'Aumeries
Aiuto per la programmazione : Marc-Olivier Méhu
Supporto tecnico e logistico : Manuel Goepfert
Aiuto per la traduzione : Arnaldo La Scala

Contatto : metmap@orbifly.com




FONTI E CREDITI :

   NOAA